createdAt,value
2018-03-27T00:01:07.373Z,95955.44
2018-03-27T00:03:37.328Z,95952.13
2018-03-27T00:06:06.845Z,95955.55
2018-03-27T00:08:36.326Z,95956.06
2018-03-27T00:11:05.829Z,95953.08
2018-03-27T00:13:35.326Z,95959.30
2018-03-27T00:16:04.811Z,95951.89
2018-03-27T00:18:34.290Z,95950.03
2018-03-27T00:21:03.776Z,95953.81
2018-03-27T00:23:33.275Z,95951.66
2018-03-27T00:26:02.800Z,95956.58
2018-03-27T00:28:48.911Z,95952.44
2018-03-27T00:31:35.148Z,95961.03
2018-03-27T00:34:21.888Z,95954.43
2018-03-27T00:37:08.334Z,95948.39
2018-03-27T00:39:54.735Z,95954.31
2018-03-27T00:45:26.129Z,95951.28
2018-03-27T00:47:56.023Z,95948.54
2018-03-27T00:50:25.502Z,95955.89
2018-03-27T00:52:55.006Z,95958.47
2018-03-27T00:55:24.529Z,95954.55
2018-03-27T00:57:54.022Z,95953.49
2018-03-27T01:00:23.515Z,95957.46
2018-03-27T01:02:53.042Z,95956.58
2018-03-27T01:05:22.528Z,95949.97
2018-03-27T01:07:52.018Z,95950.09
2018-03-27T01:10:21.532Z,95956.66
2018-03-27T01:12:51.057Z,95954.86
2018-03-27T01:15:20.742Z,95963.05
2018-03-27T01:17:50.261Z,95962.89
2018-03-27T01:20:19.435Z,95965.88
2018-03-27T01:22:48.898Z,95967.52
2018-03-27T01:25:18.815Z,95973.97
2018-03-27T01:27:48.762Z,95969.94
2018-03-27T01:30:18.409Z,95971.03
2018-03-27T01:32:47.951Z,95972.51
2018-03-27T01:35:17.898Z,95973.61
2018-03-27T01:37:47.411Z,95979.78
2018-03-27T01:40:16.886Z,95971.77
2018-03-27T01:42:46.758Z,95975.02
2018-03-27T01:45:16.278Z,95976.49
2018-03-27T01:47:45.770Z,95976.55
2018-03-27T01:50:15.270Z,95983.08
2018-03-27T01:52:44.807Z,95987.67
2018-03-27T01:55:14.695Z,95992.32
2018-03-27T01:57:44.201Z,95992.50
2018-03-27T02:00:13.705Z,95986.75
2018-03-27T02:02:43.238Z,95986.35
2018-03-27T02:05:13.146Z,95987.61
2018-03-27T02:07:42.863Z,95987.69
2018-03-27T02:10:12.375Z,95991.89
2018-03-27T02:12:47.609Z,95986.16
2018-03-27T02:15:22.335Z,95986.61
2018-03-27T02:17:57.043Z,95991.73
2018-03-27T02:20:31.914Z,95987.28
2018-03-27T02:26:09.223Z,95986.55
2018-03-27T02:28:39.104Z,95988.75
2018-03-27T02:31:08.360Z,95984.23
2018-03-27T02:33:37.906Z,95980.39
2018-03-27T02:36:07.456Z,95974.91
2018-03-27T02:38:37.545Z,95971.03
2018-03-27T02:41:07.062Z,95971.36
2018-03-27T02:43:36.761Z,95975.13
2018-03-27T02:46:06.051Z,95973.54
2018-03-27T02:48:35.323Z,95979.53
2018-03-27T02:51:04.845Z,95977.17
2018-03-27T02:53:34.132Z,95975.97
2018-03-27T02:56:03.667Z,95982.13
2018-03-27T02:58:33.191Z,95981.94
2018-03-27T03:01:02.907Z,95977.75
2018-03-27T03:03:32.612Z,95978.30
2018-03-27T03:06:02.527Z,95974.47
2018-03-27T03:08:32.262Z,95979.73
2018-03-27T03:11:45.383Z,95978.02
2018-03-27T03:14:14.663Z,95974.49
2018-03-27T03:16:44.356Z,95981.20
2018-03-27T03:19:13.882Z,95979.10
2018-03-27T03:21:43.809Z,95976.59
2018-03-27T03:24:13.695Z,95974.35
2018-03-27T03:26:43.255Z,95974.33
2018-03-27T03:29:12.762Z,95967.83
2018-03-27T03:31:42.246Z,95971.48
2018-03-27T03:34:12.153Z,95969.71
2018-03-27T03:36:42.074Z,95972.83
2018-03-27T03:39:11.984Z,95974.09
2018-03-27T03:41:41.877Z,95981.89
2018-03-27T03:44:11.359Z,95980.60
2018-03-27T03:47:44.762Z,95981.48
2018-03-27T03:50:14.319Z,95982.77
2018-03-27T03:52:44.233Z,95986.20
2018-03-27T03:55:14.161Z,95986.11
2018-03-27T03:57:43.649Z,95987.86
2018-03-27T04:00:13.600Z,95984.53
2018-03-27T04:02:43.281Z,95982.38
2018-03-27T04:05:13.206Z,95984.67
2018-03-27T04:07:42.707Z,95986.55
2018-03-27T04:10:12.632Z,95986.67
2018-03-27T04:12:42.142Z,95990.42
2018-03-27T04:15:11.648Z,95992.05
2018-03-27T04:17:41.139Z,95992.74
2018-03-27T04:20:10.663Z,95996.64
2018-03-27T04:22:40.161Z,95989.45
2018-03-27T04:25:09.667Z,95973.72
2018-03-27T04:27:39.174Z,95981.58
2018-03-27T04:30:08.685Z,95980.23
2018-03-27T04:32:38.170Z,95975.29
2018-03-27T04:35:08.275Z,95977.69
2018-03-27T04:37:38.183Z,95984.45
2018-03-27T04:40:07.710Z,95984.52
2018-03-27T04:42:37.663Z,95983.16
2018-03-27T04:45:07.357Z,95980.64
2018-03-27T04:47:36.840Z,95977.49
2018-03-27T04:50:06.717Z,95977.27
2018-03-27T04:52:36.208Z,95984.34
2018-03-27T04:55:05.799Z,95978.70
2018-03-27T04:57:35.317Z,95974.83
2018-03-27T05:00:04.251Z,95976.40
2018-03-27T05:02:34.203Z,95979.61
2018-03-27T05:05:03.687Z,95982.22
2018-03-27T05:07:33.175Z,95984.67
2018-03-27T05:10:03.272Z,95985.48
2018-03-27T05:12:32.857Z,95987.14
2018-03-27T05:15:02.408Z,95989.55
2018-03-27T05:17:31.966Z,95993.48
2018-03-27T05:20:01.433Z,95987.70
2018-03-27T05:22:31.323Z,95995.03
2018-03-27T05:25:00.812Z,96001.32
2018-03-27T05:27:30.305Z,95997.88
2018-03-27T05:29:59.995Z,96002.61
2018-03-27T05:32:29.685Z,95999.23
2018-03-27T05:34:59.593Z,96004.88
2018-03-27T05:37:29.489Z,96001.09
2018-03-27T05:39:59.406Z,96003.00
2018-03-27T05:42:28.956Z,96004.81
2018-03-27T05:44:59.015Z,96008.05
2018-03-27T05:47:28.559Z,96009.16
2018-03-27T05:49:58.458Z,96007.95
2018-03-27T05:52:28.133Z,96004.31
2018-03-27T05:54:57.393Z,96011.34
2018-03-27T05:57:26.910Z,96013.82
2018-03-27T05:59:56.169Z,96013.89
2018-03-27T06:02:25.923Z,96016.27
2018-03-27T06:04:55.443Z,96017.08
2018-03-27T06:07:24.933Z,96016.34
2018-03-27T06:09:54.425Z,96016.58
2018-03-27T06:12:23.973Z,96019.78
2018-03-27T06:14:53.492Z,96022.41
2018-03-27T06:17:23.097Z,96021.63
2018-03-27T06:19:52.379Z,96025.77
2018-03-27T06:22:21.891Z,96028.05
2018-03-27T06:24:51.377Z,96033.81
2018-03-27T06:27:20.972Z,96036.02
2018-03-27T06:29:51.034Z,96033.08
2018-03-27T06:32:20.521Z,96038.48
2018-03-27T06:34:50.008Z,96032.94
2018-03-27T06:37:20.097Z,96034.34
2018-03-27T06:39:49.993Z,96038.98
2018-03-27T06:42:19.619Z,96041.64
2018-03-27T06:44:49.274Z,96040.56
2018-03-27T06:47:18.439Z,96044.72
2018-03-27T06:49:47.969Z,96041.92
2018-03-27T06:52:17.470Z,96038.45
2018-03-27T06:54:46.961Z,96035.09
2018-03-27T06:57:16.530Z,96035.49
2018-03-27T06:59:46.021Z,96034.05
2018-03-27T07:02:15.528Z,96027.75
2018-03-27T07:04:45.021Z,96033.11
2018-03-27T07:07:14.533Z,96036.23
2018-03-27T07:09:44.033Z,96034.05
2018-03-27T07:12:13.514Z,96028.75
2018-03-27T07:14:43.080Z,96031.22
2018-03-27T07:17:12.781Z,96030.47
2018-03-27T07:19:42.527Z,96024.61
2018-03-27T07:22:12.228Z,96025.05
2018-03-27T07:24:41.728Z,96023.39
2018-03-27T07:27:11.645Z,96026.68
2018-03-27T07:29:41.365Z,96027.25
2018-03-27T07:32:10.849Z,96027.20
2018-03-27T07:34:40.739Z,96021.58
2018-03-27T07:37:10.240Z,96025.55
2018-03-27T07:39:39.756Z,96025.91
2018-03-27T07:42:09.267Z,96020.06
2018-03-27T07:44:38.762Z,96019.22
2018-03-27T07:47:08.259Z,96014.20
2018-03-27T07:49:37.791Z,96013.30
2018-03-27T07:52:07.485Z,96014.02
2018-03-27T07:54:37.203Z,96014.84
2018-03-27T07:57:06.729Z,96018.02
2018-03-27T07:59:36.640Z,96017.38
2018-03-27T08:02:06.578Z,96020.77
2018-03-27T08:04:36.059Z,96021.36
2018-03-27T08:07:05.981Z,96028.33
2018-03-27T08:09:35.868Z,96019.87
2018-03-27T08:12:05.420Z,96014.90
2018-03-27T08:14:34.950Z,96021.69
2018-03-27T08:17:04.567Z,96028.23
2018-03-27T08:19:34.154Z,96018.83
2018-03-27T08:22:03.659Z,96014.65
2018-03-27T08:24:33.153Z,96021.62
2018-03-27T08:27:02.774Z,96025.91
2018-03-27T08:29:32.338Z,96018.55
2018-03-27T08:32:01.956Z,96016.29
2018-03-27T08:34:31.876Z,96016.25
2018-03-27T08:37:01.767Z,96013.31
2018-03-27T08:39:31.481Z,96013.89
2018-03-27T08:42:01.792Z,96004.16
2018-03-27T08:44:31.314Z,96005.53
2018-03-27T08:47:01.557Z,95996.33
2018-03-27T08:49:31.223Z,95992.77
2018-03-27T08:52:00.719Z,95988.00
2018-03-27T08:54:30.267Z,95983.70
2018-03-27T08:57:00.164Z,95984.52
2018-03-27T08:59:29.652Z,95994.22
2018-03-27T09:01:59.150Z,95993.82
2018-03-27T09:04:28.685Z,95990.71
2018-03-27T09:06:58.178Z,95998.30
2018-03-27T09:09:27.665Z,95996.30
2018-03-27T09:11:57.224Z,95995.72
2018-03-27T09:14:27.128Z,95994.48
2018-03-27T09:16:56.624Z,95990.50
2018-03-27T09:19:26.146Z,95996.73
2018-03-27T09:21:56.808Z,95985.83
2018-03-27T09:24:27.228Z,95987.24
2018-03-27T09:26:56.717Z,95985.13
2018-03-27T09:29:26.608Z,95981.81
2018-03-27T09:31:56.546Z,95980.21
2018-03-27T09:34:26.494Z,95980.98
2018-03-27T09:36:56.138Z,95984.33
2018-03-27T09:39:26.252Z,95981.63
2018-03-27T09:41:55.880Z,95990.19
2018-03-27T09:44:25.232Z,95977.94
2018-03-27T09:46:54.754Z,95974.95
2018-03-27T09:49:24.240Z,95972.02
2018-03-27T09:51:53.820Z,95976.25
2018-03-27T09:54:23.722Z,95974.70
2018-03-27T09:56:53.270Z,95974.27
2018-03-27T09:59:22.540Z,95965.79
2018-03-27T10:01:52.474Z,95968.35
2018-03-27T10:04:21.970Z,95970.15
2018-03-27T10:06:51.464Z,95974.06
2018-03-27T10:09:21.392Z,95969.17
2018-03-27T10:11:51.289Z,95968.92
2018-03-27T10:14:21.222Z,95960.81
2018-03-27T10:16:50.756Z,95963.70
2018-03-27T10:19:20.288Z,95951.88
2018-03-27T10:21:49.848Z,95948.69
2018-03-27T10:24:19.356Z,95947.84
2018-03-27T10:26:48.882Z,95942.97
2018-03-27T10:29:19.400Z,95945.38
2018-03-27T10:31:48.892Z,95938.12
2018-03-27T10:34:18.400Z,95937.76
2018-03-27T10:36:47.912Z,95928.44
2018-03-27T10:39:17.414Z,95931.04
2018-03-27T10:41:46.924Z,95934.16
2018-03-27T10:44:16.427Z,95925.22
2018-03-27T10:46:45.928Z,95924.78
2018-03-27T10:49:15.460Z,95915.28
2018-03-27T10:51:44.964Z,95911.59
2018-03-27T10:54:14.452Z,95915.28
2018-03-27T10:56:44.103Z,95913.16
2018-03-27T10:59:14.228Z,95913.94
2018-03-27T11:01:43.788Z,95906.70
2018-03-27T11:04:13.292Z,95905.15
2018-03-27T11:06:42.822Z,95895.02
2018-03-27T11:09:12.316Z,95892.10
2018-03-27T11:11:42.116Z,95884.30
2018-03-27T11:14:11.753Z,95880.00
2018-03-27T11:16:41.248Z,95873.66
2018-03-27T11:19:10.785Z,95874.62
2018-03-27T11:21:40.474Z,95873.58
2018-03-27T11:24:09.986Z,95869.78
2018-03-27T11:26:39.618Z,95861.50
2018-03-27T11:29:09.358Z,95863.22
2018-03-27T11:31:39.471Z,95864.63
2018-03-27T11:34:09.405Z,95861.87
2018-03-27T11:36:38.949Z,95859.58
2018-03-27T11:39:08.136Z,95850.84
2018-03-27T11:41:37.633Z,95842.84
2018-03-27T11:44:07.134Z,95839.96
2018-03-27T11:46:36.632Z,95838.87
2018-03-27T11:49:06.143Z,95829.06
2018-03-27T11:51:35.662Z,95823.70
2018-03-27T11:54:04.929Z,95828.12
2018-03-27T11:56:34.866Z,95817.11
2018-03-27T11:59:04.466Z,95818.81
2018-03-27T12:01:33.767Z,95809.84
2018-03-27T12:04:03.414Z,95796.53
2018-03-27T12:06:32.998Z,95796.26
2018-03-27T12:09:02.500Z,95790.88
2018-03-27T12:11:32.024Z,95784.55
2018-03-27T12:14:01.544Z,95776.52
2018-03-27T12:16:31.036Z,95768.90
2018-03-27T12:19:00.538Z,95761.47
2018-03-27T12:21:30.032Z,95760.31
2018-03-27T12:23:59.528Z,95759.92
2018-03-27T12:26:29.034Z,95758.02
2018-03-27T12:28:58.601Z,95757.75
2018-03-27T12:31:28.111Z,95750.14
2018-03-27T12:33:58.029Z,95744.53
2018-03-27T12:36:27.916Z,95734.94
2018-03-27T12:38:57.408Z,95738.27
2018-03-27T12:41:26.907Z,95731.11
2018-03-27T12:43:56.458Z,95733.86
2018-03-27T12:46:26.433Z,95727.05
2018-03-27T12:48:56.327Z,95725.53
2018-03-27T12:51:25.848Z,95716.19
2018-03-27T12:53:55.363Z,95713.22
2018-03-27T12:56:24.963Z,95706.07
2018-03-27T12:58:54.452Z,95698.30
2018-03-27T13:01:23.970Z,95698.13
2018-03-27T13:03:53.486Z,95696.30
2018-03-27T13:06:23.006Z,95690.39
2018-03-27T13:08:52.507Z,95688.31
2018-03-27T13:11:21.785Z,95689.22
2018-03-27T13:13:51.303Z,95684.60
2018-03-27T13:16:20.826Z,95687.53
2018-03-27T13:18:50.329Z,95679.19
2018-03-27T13:21:19.836Z,95682.70
2018-03-27T13:23:49.322Z,95677.31
2018-03-27T13:26:18.834Z,95678.17
2018-03-27T13:28:48.346Z,95667.83
2018-03-27T13:31:17.868Z,95665.66
2018-03-27T13:33:47.366Z,95657.51
2018-03-27T13:36:17.074Z,95666.20
2018-03-27T13:38:46.572Z,95661.64
2018-03-27T13:41:16.074Z,95657.27
2018-03-27T13:43:45.591Z,95645.34
2018-03-27T13:46:15.107Z,95649.36
2018-03-27T13:48:44.803Z,95644.46
2018-03-27T13:51:14.314Z,95641.99
2018-03-27T13:53:43.865Z,95641.77
2018-03-27T13:56:14.284Z,95631.52
2018-03-27T13:58:44.187Z,95626.02
2018-03-27T14:01:14.091Z,95622.02
2018-03-27T14:03:44.056Z,95620.13
2018-03-27T14:06:13.553Z,95617.68
2018-03-27T14:08:43.061Z,95609.73
2018-03-27T14:11:13.341Z,95612.84
2018-03-27T14:13:42.843Z,95607.11
2018-03-27T14:16:12.340Z,95602.82
2018-03-27T14:18:41.829Z,95608.09
2018-03-27T14:21:11.399Z,95595.91
2018-03-27T14:23:40.938Z,95588.21
2018-03-27T14:26:10.667Z,95576.03
2018-03-27T14:28:41.978Z,95584.35
2018-03-27T14:31:11.282Z,95583.20
2018-03-27T14:33:41.612Z,95584.89
2018-03-27T14:36:11.210Z,95580.56
2018-03-27T14:38:40.469Z,95573.66
2018-03-27T14:41:10.042Z,95574.70
2018-03-27T14:43:39.564Z,95573.92
2018-03-27T14:46:09.066Z,95570.48
2018-03-27T14:48:38.668Z,95564.94
2018-03-27T14:51:07.967Z,95559.91
2018-03-27T14:53:37.471Z,95561.31
2018-03-27T14:56:06.634Z,95551.08
2018-03-27T14:58:36.154Z,95542.92
2018-03-27T15:01:05.666Z,95539.80
2018-03-27T15:03:36.089Z,95538.23
2018-03-27T15:06:05.587Z,95542.80
2018-03-27T15:08:35.996Z,95538.11
2018-03-27T15:11:05.496Z,95534.25
2018-03-27T15:13:34.995Z,95528.23
2018-03-27T15:16:04.927Z,95523.19
2018-03-27T15:18:34.426Z,95523.46
2018-03-27T15:21:03.928Z,95525.29
2018-03-27T15:23:33.825Z,95522.81
2018-03-27T15:26:03.713Z,95520.20
2018-03-27T15:28:33.218Z,95524.02
2018-03-27T15:31:02.942Z,95519.58
2018-03-27T15:33:32.668Z,95522.38
2018-03-27T15:36:02.363Z,95517.59
2018-03-27T15:38:31.859Z,95512.61
2018-03-27T15:41:01.363Z,95512.92
2018-03-27T15:43:30.884Z,95518.79
2018-03-27T15:46:00.399Z,95512.44
2018-03-27T15:48:29.959Z,95512.55
2018-03-27T15:50:59.503Z,95510.77
2018-03-27T15:53:29.030Z,95513.66
2018-03-27T15:55:58.947Z,95512.91
2018-03-27T15:58:28.845Z,95508.83
2018-03-27T16:00:58.564Z,95507.88
2018-03-27T16:03:28.484Z,95501.43
2018-03-27T16:05:58.047Z,95509.25
2018-03-27T16:08:27.581Z,95506.18
2018-03-27T16:10:57.070Z,95501.75
2018-03-27T16:13:26.579Z,95507.38
2018-03-27T16:15:56.129Z,95507.55
2018-03-27T16:18:25.645Z,95501.98
2018-03-27T16:20:55.166Z,95503.04
2018-03-27T16:23:24.668Z,95502.02
2018-03-27T16:25:54.175Z,95505.16
2018-03-27T16:28:23.749Z,95494.23
2018-03-27T16:30:53.649Z,95488.96
2018-03-27T16:33:23.528Z,95479.13
2018-03-27T16:35:53.036Z,95479.55
2018-03-27T16:38:22.531Z,95469.02
2018-03-27T16:40:52.041Z,95472.94
2018-03-27T16:43:21.538Z,95477.72
2018-03-27T16:45:51.021Z,95476.20
2018-03-27T16:48:20.525Z,95469.98
2018-03-27T16:50:50.023Z,95469.12
2018-03-27T16:53:19.909Z,95470.61
2018-03-27T16:55:49.398Z,95479.97
2018-03-27T16:58:18.903Z,95476.89
2018-03-27T17:00:48.376Z,95477.11
2018-03-27T17:03:17.863Z,95482.61
2018-03-27T17:05:47.369Z,95477.78
2018-03-27T17:08:16.855Z,95483.61
2018-03-27T17:10:46.812Z,95483.28
2018-03-27T17:13:16.287Z,95485.48
2018-03-27T17:15:45.784Z,95481.81
2018-03-27T17:18:15.693Z,95493.06
2018-03-27T17:20:45.255Z,95489.80
2018-03-27T17:23:14.747Z,95495.98
2018-03-27T17:25:44.019Z,95495.25
2018-03-27T17:28:13.529Z,95496.45
2018-03-27T17:30:43.024Z,95498.38
2018-03-27T17:33:12.916Z,95506.77
2018-03-27T17:35:42.443Z,95512.03
2018-03-27T17:38:12.363Z,95513.39
2018-03-27T17:40:42.099Z,95513.19
2018-03-27T17:43:11.591Z,95512.80
2018-03-27T17:45:41.099Z,95498.84
2018-03-27T17:48:10.360Z,95495.75
2018-03-27T17:50:39.850Z,95505.23
2018-03-27T17:53:09.514Z,95498.42
2018-03-27T17:55:38.995Z,95508.67
2018-03-27T17:58:08.937Z,95504.77
2018-03-27T18:00:38.444Z,95507.31
2018-03-27T18:03:07.944Z,95508.64
2018-03-27T18:05:37.443Z,95511.18
2018-03-27T18:08:07.367Z,95517.73
2018-03-27T18:10:36.877Z,95523.73
2018-03-27T18:13:06.401Z,95524.09
2018-03-27T18:15:36.201Z,95525.44
2018-03-27T18:18:05.368Z,95520.73
2018-03-27T18:20:35.366Z,95519.89
2018-03-27T18:23:06.040Z,95524.19
2018-03-27T18:25:35.582Z,95530.52
2018-03-27T18:28:05.081Z,95542.58
2018-03-27T18:30:35.203Z,95553.89
2018-03-27T18:33:04.710Z,95551.28
2018-03-27T18:35:34.581Z,95558.63
2018-03-27T18:38:04.519Z,95560.38
2018-03-27T18:40:34.015Z,95552.47
2018-03-27T18:43:03.496Z,95552.11
2018-03-27T18:45:33.402Z,95556.53
2018-03-27T18:48:02.911Z,95558.98
2018-03-27T18:50:32.800Z,95567.89
2018-03-27T18:53:02.294Z,95559.69
2018-03-27T18:55:31.799Z,95573.01
2018-03-27T18:58:01.300Z,95565.63
2018-03-27T19:00:30.988Z,95560.21
2018-03-27T19:03:00.223Z,95553.01
2018-03-27T19:05:29.712Z,95548.78
2018-03-27T19:07:59.218Z,95548.82
2018-03-27T19:10:28.724Z,95552.27
2018-03-27T19:12:58.426Z,95553.80
2018-03-27T19:15:27.927Z,95556.25
2018-03-27T19:17:57.490Z,95550.58
2018-03-27T19:20:27.376Z,95550.00
2018-03-27T19:22:56.656Z,95551.70
2018-03-27T19:25:33.230Z,95548.69
2018-03-27T19:28:05.536Z,95541.63
2018-03-27T19:30:35.039Z,95542.93
2018-03-27T19:33:04.534Z,95536.20
2018-03-27T19:35:34.043Z,95535.47
2018-03-27T19:38:03.552Z,95525.64
2018-03-27T19:40:33.034Z,95524.25
2018-03-27T19:43:02.580Z,95525.44
2018-03-27T19:45:32.090Z,95520.98
2018-03-27T19:48:01.993Z,95511.86
2018-03-27T19:50:31.497Z,95512.61
2018-03-27T19:53:01.018Z,95507.23
2018-03-27T19:55:30.902Z,95504.56
2018-03-27T19:58:00.758Z,95501.69
2018-03-27T20:00:30.690Z,95498.02
2018-03-27T20:03:00.013Z,95510.77
2018-03-27T20:05:29.512Z,95515.22
2018-03-27T20:07:59.646Z,95509.80
2018-03-27T20:10:29.140Z,95506.00
2018-03-27T20:12:58.643Z,95508.19
2018-03-27T20:15:28.158Z,95508.05
2018-03-27T20:17:57.667Z,95512.67
2018-03-27T20:20:27.165Z,95509.84
2018-03-27T20:22:56.669Z,95508.88
2018-03-27T20:25:26.184Z,95502.12
2018-03-27T20:27:55.696Z,95498.24
2018-03-27T20:30:25.198Z,95500.95
2018-03-27T20:32:54.790Z,95496.11
2018-03-27T20:35:24.306Z,95494.97
2018-03-27T20:37:54.092Z,95495.15
2018-03-27T20:40:24.358Z,95496.75
2018-03-27T20:42:53.960Z,95491.70
2018-03-27T20:45:23.510Z,95492.87
2018-03-27T20:47:55.238Z,95489.73
2018-03-27T20:50:25.688Z,95485.59
2018-03-27T20:52:55.620Z,95483.02
2018-03-27T20:55:25.232Z,95472.85
2018-03-27T20:57:54.742Z,95478.83
2018-03-27T21:00:24.238Z,95476.12
2018-03-27T21:02:53.734Z,95478.08
2018-03-27T21:05:23.632Z,95475.98
2018-03-27T21:07:53.542Z,95477.52
2018-03-27T21:10:23.041Z,95466.14
2018-03-27T21:12:52.601Z,95474.25
2018-03-27T21:15:22.247Z,95472.89
2018-03-27T21:17:51.763Z,95472.89
2018-03-27T21:20:21.265Z,95476.95
2018-03-27T21:22:51.038Z,95473.80
2018-03-27T21:25:20.602Z,95478.04
2018-03-27T21:27:50.505Z,95472.23
2018-03-27T21:30:20.037Z,95473.02
2018-03-27T21:32:49.932Z,95473.76
2018-03-27T21:35:19.453Z,95485.36
2018-03-27T21:37:49.366Z,95484.19
2018-03-27T21:40:19.284Z,95490.22
2018-03-27T21:42:49.190Z,95482.31
2018-03-27T21:45:19.128Z,95478.12
2018-03-27T21:47:48.647Z,95486.45
2018-03-27T21:50:18.954Z,95486.64
2018-03-27T21:52:49.058Z,95483.93
2018-03-27T21:55:18.998Z,95476.38
2018-03-27T21:57:48.527Z,95481.61
2018-03-27T22:00:17.902Z,95479.91
2018-03-27T22:02:47.428Z,95481.84
2018-03-27T22:05:16.981Z,95484.38
2018-03-27T22:07:46.487Z,95484.55
2018-03-27T22:10:16.062Z,95490.52
2018-03-27T22:12:45.654Z,95486.89
2018-03-27T22:15:15.250Z,95487.46
2018-03-27T22:17:44.798Z,95483.18
2018-03-27T22:20:14.376Z,95483.55
2018-03-27T22:22:43.936Z,95480.87
2018-03-27T22:25:13.890Z,95476.42
2018-03-27T22:27:43.599Z,95477.21
2018-03-27T22:30:13.454Z,95477.91
2018-03-27T22:32:43.010Z,95463.81
2018-03-27T22:35:13.220Z,95467.27
2018-03-27T22:37:43.133Z,95463.81
2018-03-27T22:40:13.058Z,95457.44
2018-03-27T22:42:42.979Z,95465.99
2018-03-27T22:45:13.212Z,95464.42
2018-03-27T22:47:42.700Z,95446.62
2018-03-27T22:50:12.202Z,95446.45
2018-03-27T22:52:42.115Z,95446.27
2018-03-27T22:55:12.027Z,95435.41
2018-03-27T22:57:41.946Z,95421.49
2018-03-27T23:00:10.935Z,95410.28
2018-03-27T23:02:40.851Z,95408.75
2018-03-27T23:05:10.784Z,95396.58
2018-03-27T23:07:40.276Z,95392.48
2018-03-27T23:10:10.211Z,95411.46
2018-03-27T23:12:39.714Z,95422.67
2018-03-27T23:15:09.207Z,95429.11
2018-03-27T23:17:39.125Z,95423.49
2018-03-27T23:20:08.677Z,95426.66
2018-03-27T23:22:38.427Z,95434.60
2018-03-27T23:25:08.329Z,95427.45
2018-03-27T23:27:37.835Z,95433.42
2018-03-27T23:30:07.513Z,95422.39
2018-03-27T23:32:36.779Z,95427.80
2018-03-27T23:35:06.074Z,95427.02
2018-03-27T23:37:35.611Z,95425.91
2018-03-27T23:40:04.257Z,95429.97
2018-03-27T23:42:34.134Z,95426.34
2018-03-27T23:45:03.674Z,95435.24
2018-03-27T23:47:33.559Z,95418.82
2018-03-27T23:50:03.047Z,95424.27
2018-03-27T23:52:32.543Z,95412.69
2018-03-27T23:55:02.073Z,95418.28
2018-03-27T23:57:31.579Z,95422.55
